Flight Track Log - Related Links

Times and Time Zones

All times are in EDT time to prevent confusion due to time zone crossing. See the THY695 flight status page for this flight to view local times or setup timezone preferences in your user account.

Time Position Orientation Groundspeed Altitude Reporting Facility
EDT Latitude Longitude Course Direction KTS MPH feet Rate Location/Type
Sun 02:50:00 PM 31.8221 31.0445 350° North  Level Estimated
Sun 02:51:00 PM 31.9354 31.0200 350° North  Level Estimated
Sun 02:52:00 PM 32.0488 30.9954 350° North  Level Estimated
Sun 02:53:00 PM 32.1621 30.9707 350° North  Level Estimated
Sun 02:54:00 PM 32.2754 30.9460 350° North  Level Estimated
Sun 02:55:00 PM 32.3886 30.9212 350° North  Level Estimated
Sun 02:56:00 PM 32.5019 30.8964 350° North  Level Estimated
Sun 02:57:00 PM 32.6152 30.8715 350° North  Level Estimated
Sun 02:58:00 PM 32.7285 30.8465 349° North  Level Estimated
Sun 02:59:00 PM 32.8418 30.8215 349° North  Level Estimated
Sun 03:00:00 PM 32.9550 30.7964 349° North  Level Estimated
Sun 03:01:00 PM 33.0683 30.7712 349° North  Level Estimated
Sun 03:02:00 PM 33.1816 30.7460 349° North  Level Estimated
Sun 03:03:00 PM 33.2948 30.7207 349° North  Level Estimated
Sun 03:04:00 PM 33.4081 30.6954 349° North  Level Estimated
Sun 03:04:48 PM 33.1420 30.9500 349° North 468 539 34,000  Level FlightAware ADS-B
Sun 03:05:00 PM 33.5213 30.6700 349° North  Level Estimated
Sun 03:05:35 PM 33.2360 30.9500 360° North 467 537 34,000  Level FlightAware ADS-B
Sun 03:06:25 PM 33.3440 30.9500 360° North 469 540 34,000  Level FlightAware ADS-B
Sun 03:07:05 PM 33.4420 30.9500 360° North 470 541 34,000  Level FlightAware ADS-B
Sun 03:07:46 PM 33.5300 30.9440 357° North 470 541 34,000  Level FlightAware ADS-B
Sun 03:08:16 PM 33.5890 30.9400 357° North 470 541 34,000  Level FlightAware ADS-B
Sun 03:09:01 PM 33.6890 30.9340 357° North 470 541 34,000  Level FlightAware ADS-B
Sun 03:09:43 PM 33.7730 30.9290 357° North 470 541 34,000  Level FlightAware ADS-B
Sun 03:10:31 PM 33.8890 30.9220 357° North 469 540 34,000  Level FlightAware ADS-B
Sun 03:11:26 PM 34.0090 30.9150 357° North 470 541 34,000  Level FlightAware ADS-B
Sun 03:12:01 PM 34.0850 30.9110 358° North 464 534 34,000  Level FlightAware ADS-B
Sun 03:12:46 PM 34.1830 30.9050 357° North 464 534 34,000  Level FlightAware ADS-B
Sun 03:13:27 PM 34.2700 30.9010 358° North 464 534 34,000  Level FlightAware ADS-B
Sun 03:14:08 PM 34.3600 30.8960 357° North 464 534 34,000  Level FlightAware ADS-B
Sun 03:14:48 PM 34.4490 30.8920 358° North 463 533 34,000  Level FlightAware ADS-B
Sun 03:15:33 PM 34.5260 30.8880 358° North 465 535 34,000  Level FlightAware ADS-B
Sun 03:16:18 PM 34.6470 30.8820 358° North 465 535 34,000  Level FlightAware ADS-B
Sun 03:16:58 PM 34.7370 30.8800 359° North 468 539 34,000  Level FlightAware ADS-B
Sun 03:17:39 PM 34.8250 30.8770 358° North 468 539 34,000  Level FlightAware ADS-B
Sun 03:18:20 PM 34.9140 30.8740 358° North 470 541 34,000  Level FlightAware ADS-B
Sun 03:18:59 PM 35.0050 30.8710 358° North 470 541 34,000  Level FlightAware ADS-B
Sun 03:19:45 PM 35.1020 30.8680 359° North 469 540 34,000  Level FlightAware ADS-B
Sun 03:20:31 PM 35.2050 30.8640 358° North 469 540 34,000  Level FlightAware ADS-B
Sun 03:21:16 PM 35.3030 30.8610 359° North 468 539 34,000  Level FlightAware ADS-B
Sun 03:21:57 PM 35.3970 30.8580 359° North 470 541 34,000  Level FlightAware ADS-B
Sun 03:22:32 PM 35.4740 30.8550 358° North 469 540 34,000  Level FlightAware ADS-B
Sun 03:23:12 PM 35.5600 30.8520 358° North 468 539 34,000  Level FlightAware ADS-B
Sun 03:23:57 PM 35.6610 30.8480 358° North 469 540 34,000  Level FlightAware ADS-B
Sun 03:24:33 PM 35.7390 30.8430 357° North 468 539 34,000  Level FlightAware ADS-B
Sun 03:25:13 PM 35.8290 30.8380 357° North 464 534 34,000  Level FlightAware ADS-B
Sun 03:25:58 PM 35.9220 30.8320 357° North 468 539 34,000  Level FlightAware ADS-B
Sun 03:26:33 PM 36.0020 30.8270 357° North 465 535 34,000  Level FlightAware ADS-B
Sun 03:27:19 PM 36.0970 30.8220 358° North 469 540 34,000  Level FlightAware ADS-B
Sun 03:27:55 PM 36.1700 30.8200 359° North 463 533 34,000  Level FlightAware ADS-B
Sun 03:28:41 PM 36.2700 30.8170 359° North 467 537 34,000  Level FlightAware ADS-B
Sun 03:29:18 PM 36.3600 30.8140 358° North 467 537 34,000  Level FlightAware ADS-B
Sun 03:30:03 PM 36.4530 30.8110 359° North 468 539 34,000  Level FlightAware ADS-B
Sun 03:30:43 PM 36.5450 30.8080 358° North 469 540 34,000  Level FlightAware ADS-B
Sun 03:31:23 PM 36.6330 30.8050 358° North 470 541 34,000  Level FlightAware ADS-B
Sun 03:32:06 PM 36.7200 30.8010 358° North 470 541 34,000  Level FlightAware ADS-B
Sun 03:32:48 PM 36.8230 30.7980 359° North 470 541 34,000  Level FlightAware ADS-B
Sun 03:33:33 PM 36.9240 30.7940 358° North 467 537 34,000  Level FlightAware ADS-B
Sun 03:34:08 PM 36.9990 30.7850 355° North 466 536 34,000  Level FlightAware ADS-B
Sun 03:34:49 PM 37.0870 30.7740 354° North 471 542 34,000  Level FlightAware ADS-B
Sun 03:35:29 PM 37.1750 30.7630 354° North 455 524 34,000  Level FlightAware ADS-B
Sun 03:36:09 PM 37.2610 30.7530 355° North 452 520 34,000  Level FlightAware ADS-B
Sun 03:36:49 PM 37.3440 30.7420 354° North 451 519 34,000  Level FlightAware ADS-B
Sun 03:37:34 PM 37.4410 30.7300 354° North 451 519 34,000  Level FlightAware ADS-B
Sun 03:38:19 PM 37.5350 30.7160 353° North 451 519 34,000  Level FlightAware ADS-B
Sun 03:38:59 PM 37.6200 30.7040 354° North 452 520 34,000  Level FlightAware ADS-B
Sun 03:39:36 PM 37.6980 30.6940 354° North 454 522 34,000  Level FlightAware ADS-B
Sun 03:40:26 PM 37.8040 30.6810 354° North 454 522 34,000  Level FlightAware ADS-B
Sun 03:41:05 PM 37.8840 30.6720 355° North 453 521 34,000  Level FlightAware ADS-B
Sun 03:41:51 PM 37.9820 30.6580 354° North 452 520 34,000  Level FlightAware ADS-B
Sun 03:42:31 PM 38.0700 30.6450 353° North 453 521 34,000  Level FlightAware ADS-B
Sun 03:43:11 PM 38.1490 30.6350 354° North 454 522 34,000  Level FlightAware ADS-B
Sun 03:44:06 PM 38.2660 30.6200 354° North 455 524 34,000  Level FlightAware ADS-B
Sun 03:44:51 PM 38.3650 30.6070 354° North 467 537 34,000  Level FlightAware ADS-B
Sun 03:45:33 PM 38.4370 30.5970 354° North 467 537 34,000  Level FlightAware ADS-B
Sun 03:46:41 PM 38.5880 30.5760 354° North 470 541 34,000  Level FlightAware ADS-B
Sun 03:47:17 PM 38.6540 30.5670 354° North 470 541 34,000  Level FlightAware ADS-B
Sun 03:48:22 PM 38.8070 30.5300 349° North 463 533 34,000  Level FlightAware ADS-B
Sun 03:49:01 PM 38.8890 30.4800 335° Northwest 438 504 34,000  Level FlightAware ADS-B
Sun 03:49:43 PM 38.9510 30.4360 331° Northwest 438 504 34,000  Level FlightAware ADS-B
Sun 03:51:04 PM 39.0940 30.3190 328° Northwest 434 499 34,000  Level FlightAware ADS-B
Sun 03:52:00 PM 39.1910 30.2420 328° Northwest 433 498 34,000  Level FlightAware ADS-B
Sun 03:52:52 PM 39.2810 30.1710 329° Northwest 434 499 34,000  Level FlightAware ADS-B
Sun 03:53:48 PM 39.3760 30.0960 329° Northwest 435 501 34,000 -469 Level FlightAware ADS-B
Sun 03:55:00 PM 39.5060 29.9930 329° Northwest 440 506 33,000 -1,223 Descending FlightAware ADS-B
Sun 03:55:31 PM 39.5680 29.9440 329° Northwest 434 499 31,900 -1,407 Descending FlightAware ADS-B
Sun 03:56:21 PM 39.6500 29.8790 329° Northwest 418 481 31,100 -947 Descending FlightAware ADS-B
Sun 03:57:06 PM 39.7280 29.8160 328° Northwest 415 478 30,400 -682 Descending FlightAware ADS-B
Sun 03:57:49 PM 39.7900 29.7650 328° Northwest 418 481 30,100 -1,733 Descending FlightAware ADS-B
Sun 03:58:36 PM 39.8850 29.6900 329° Northwest 435 501 27,800 -2,739 Descending FlightAware ADS-B
Sun 03:59:21 PM 39.9600 29.6290 328° Northwest 433 498 25,900 -2,471 Descending FlightAware ADS-B
Sun 04:00:01 PM 40.0280 29.5740 328° Northwest 422 486 24,300 -2,175 Descending FlightAware ADS-B
Sun 04:00:41 PM 40.0910 29.5220 328° Northwest 415 478 23,000 -1,694 Descending FlightAware ADS-B
Sun 04:01:26 PM 40.1660 29.4610 328° Northwest 414 476 21,900 -1,630 Descending FlightAware ADS-B
Sun 04:02:02 PM 40.2230 29.4150 328° Northwest 399 459 20,800 -2,220 Descending FlightAware ADS-B
Sun 04:03:06 PM 40.3240 29.3320 328° Northwest 382 440 18,200 -2,139 Descending FlightAware ADS-B
Sun 04:03:57 PM 40.3970 29.2730 328° Northwest 366 421 16,700 -1,448 Descending FlightAware ADS-B
Sun 04:04:33 PM 40.4450 29.2330 328° Northwest 329 379 16,100 -1,425 Descending FlightAware ADS-B
Sun 04:05:17 PM 40.5060 29.1830 328° Northwest 307 353 14,800 -1,643 Descending FlightAware ADS-B
Sun 04:05:57 PM 40.5510 29.1470 329° Northwest 303 349 13,800 -1,520 Descending FlightAware ADS-B
Sun 04:06:32 PM 40.5950 29.1130 330° Northwest 303 349 12,900 -1,800 Descending FlightAware ADS-B
Sun 04:07:17 PM 40.6500 29.0690 329° Northwest 298 343 11,400 -1,694 Descending FlightAware ADS-B
Sun 04:07:57 PM 40.6920 29.0340 328° Northwest 286 329 10,500 -1,680 Descending FlightAware ADS-B
Sun 04:08:07 PM 40.7060 29.0240 332° Northwest 285 328 10,000 -3,000 Descending FlightAware ADS-B
Sun 04:08:37 PM 40.7430 28.9930 328° Northwest 282 325 8,500 -2,200 Descending FlightAware ADS-B
Sun 04:09:07 PM 40.7770 28.9670 330° Northwest 284 327 7,800 -1,174 Descending FlightAware ADS-B
Sun 04:09:23 PM 40.7940 28.9530 328° Northwest 266 306 7,600 -600 Descending FlightAware ADS-B
Sun 04:09:47 PM 40.8170 28.9340 328° Northwest 263 303 7,400 -769 Descending FlightAware ADS-B
Sun 04:10:02 PM 40.8330 28.9150 318° Northwest 257 296 7,100 -960 Descending FlightAware ADS-B
Sun 04:10:12 PM 40.8380 28.9030 299° West 255 293 7,000 -692 Descending FlightAware ADS-B
Sun 04:10:28 PM 40.8390 28.8780 273° West 251 289 6,800 -1,029 Descending FlightAware ADS-B
Sun 04:10:47 PM 40.8330 28.8520 253° West 248 285 6,400 -1,200 Descending FlightAware ADS-B
Sun 04:11:48 PM 40.8100 28.7630 251° West 241 277 5,200 -1,059 Descending FlightAware ADS-B
Sun 04:12:12 PM 40.8030 28.7340 252° West 233 268 4,900 -1,000 Descending FlightAware ADS-B
Sun 04:12:42 PM 40.7930 28.6920 253° West 238 274 4,300 -1,565 Descending FlightAware ADS-B
Sun 04:12:58 PM 40.7850 28.6690 245° Southwest 248 285 3,700 -1,350 Descending FlightAware ADS-B
Sun 04:13:22 PM 40.7870 28.6350 274° West 222 255 3,400 -769 Descending FlightAware ADS-B
Sun 04:13:37 PM 40.7950 28.6190 303° West 200 230 3,200 -800 Descending FlightAware ADS-B
Sun 04:13:52 PM 40.8060 28.6070 320° Northwest 178 205 3,000 -267 Descending FlightAware ADS-B
Sun 04:14:22 PM 40.8290 28.6140 13° North 179 206 3,000  Level FlightAware ADS-B
Sun 04:14:48 PM 40.8480 28.6250 24° Northeast 179 206 3,000  Level FlightAware ADS-B
Sun 04:15:02 PM 40.8600 28.6320 24° Northeast 179 206 3,000  Level FlightAware ADS-B
Sun 04:15:32 PM 40.8800 28.6450 26° Northeast 176 203 3,000 -150 Level FlightAware ADS-B
Sun 04:15:42 PM 40.8890 28.6520 30° Northeast 172 198 2,900 -720 Descending FlightAware ADS-B
Sun 04:15:57 PM 40.8960 28.6620 47° Northeast 168 193 2,700 -824 Descending FlightAware ADS-B
Sun 04:16:33 PM 40.9090 28.6880 57° Northeast 138 159 2,200 -738 Descending FlightAware ADS-B
Sun 04:17:02 PM 40.9190 28.7110 60° Northeast 133 153 1,900 -759 Descending FlightAware ADS-B
Sun 04:17:52 PM 40.9370 28.7470 56° Northeast 130 150 1,200 -776 Descending FlightAware ADS-B
Sun 04:18:27 PM 40.9470 28.7700 60° Northeast 129 148 800 -667 Descending FlightAware ADS-B
Sun 04:18:37 PM 40.9500 28.7770 60° Northeast 131 151 700 -305 Descending FlightAware ADS-B
Sun 04:19:26 PM 40.9650 28.8090 58° Northeast 133 153 500 -245 Descending FlightAware ADS-B
Sun 04:19:49 PM 40.9730 28.8250 56° Northeast 86 99 -1,304 Descending FlightAware ADS-B
Sun 04:20:14 PM 40.9770 28.8350 62° Northeast 86 99  Level FlightAware ADS-B
Sun 04:21:38 PM 40.9760 28.8260 262° West 14 16  Level FlightAware ADS-B
Sun 04:22:19 PM 40.9760 28.8220 270° West 11 13  Level FlightAware ADS-B
Sun 04:22:49 PM 40.9760 28.8210 270° West 5 6  Level FlightAware ADS-B
Sun 04:23:50 PM 40.9770 28.8210 360° North  Level FlightAware ADS-B

Login

Don't have an account? Register now (free) for customized features, flight alerts, and more!